createdAt,value
2018-02-18T00:02:27.377Z,57.20
2018-02-18T00:04:55.132Z,57.10
2018-02-18T00:07:23.542Z,57.40
2018-02-18T00:09:51.099Z,57.40
2018-02-18T00:12:18.771Z,57.50
2018-02-18T00:15:02.006Z,57.70
2018-02-18T00:17:30.332Z,57.70
2018-02-18T00:19:57.949Z,57.60
2018-02-18T00:22:25.530Z,57.60
2018-02-18T00:24:53.142Z,57.50
2018-02-18T00:27:20.758Z,57.30
2018-02-18T00:29:48.376Z,57.10
2018-02-18T00:32:15.986Z,57.00
2018-02-18T00:34:44.442Z,57.10
2018-02-18T00:37:12.016Z,57.20
2018-02-18T00:39:39.752Z,57.10
2018-02-18T00:42:07.328Z,57.10
2018-02-18T00:44:35.686Z,57.10
2018-02-18T00:47:03.259Z,57.00
2018-02-18T00:49:31.723Z,57.00
2018-02-18T00:51:59.337Z,56.80
2018-02-18T00:54:27.178Z,56.70
2018-02-18T00:56:54.868Z,56.80
2018-02-18T00:59:22.512Z,56.80
2018-02-18T01:01:50.756Z,56.90
2018-02-18T01:04:18.539Z,57.00
2018-02-18T01:06:46.176Z,57.10
2018-02-18T01:09:13.744Z,57.20
2018-02-18T01:11:41.324Z,57.10
2018-02-18T01:14:08.907Z,57.00
2018-02-18T01:16:36.486Z,57.20
2018-02-18T01:19:04.055Z,57.20
2018-02-18T01:21:31.638Z,57.10
2018-02-18T01:24:00.750Z,57.10
2018-02-18T01:26:28.643Z,57.10
2018-02-18T01:28:56.222Z,57.10
2018-02-18T01:31:24.601Z,57.30
2018-02-18T01:33:52.181Z,57.20
2018-02-18T01:36:19.880Z,57.30
2018-02-18T01:38:47.468Z,57.40
2018-02-18T01:41:15.134Z,57.40
2018-02-18T01:43:42.695Z,57.40
2018-02-18T01:46:10.283Z,57.50
2018-02-18T01:48:37.917Z,57.40
2018-02-18T01:51:05.518Z,57.50
2018-02-18T01:53:33.086Z,57.80
2018-02-18T01:56:01.446Z,57.80
2018-02-18T01:58:29.026Z,57.70
2018-02-18T02:00:56.825Z,57.80
2018-02-18T02:03:25.160Z,58.30
2018-02-18T02:05:52.774Z,58.20
2018-02-18T02:08:21.194Z,58.30
2018-02-18T02:11:31.645Z,58.30
2018-02-18T02:14:00.099Z,58.30
2018-02-18T02:16:27.722Z,58.30
2018-02-18T02:18:56.220Z,58.20
2018-02-18T02:21:23.956Z,58.10
2018-02-18T02:23:51.562Z,58.20
2018-02-18T02:26:19.909Z,58.00
2018-02-18T02:28:47.466Z,58.00
2018-02-18T02:31:15.044Z,57.90
2018-02-18T02:33:42.631Z,57.70
2018-02-18T02:36:10.227Z,57.50
2018-02-18T02:38:37.855Z,57.40
2018-02-18T02:41:05.445Z,57.50
2018-02-18T02:43:33.023Z,57.60
2018-02-18T02:46:00.656Z,57.90
2018-02-18T02:48:28.227Z,58.20
2018-02-18T02:50:55.817Z,58.30
2018-02-18T02:53:23.378Z,58.20
2018-02-18T02:55:51.028Z,58.20
2018-02-18T02:58:18.627Z,58.10
2018-02-18T03:00:46.214Z,58.40
2018-02-18T03:03:13.828Z,58.40
2018-02-18T03:05:42.199Z,58.60
2018-02-18T03:08:09.762Z,58.60
2018-02-18T03:10:37.371Z,58.50
2018-02-18T03:13:04.937Z,58.40
2018-02-18T03:15:32.528Z,58.50
2018-02-18T03:18:00.858Z,58.70
2018-02-18T03:20:28.483Z,58.70
2018-02-18T03:22:56.058Z,58.80
2018-02-18T03:25:24.424Z,58.50
2018-02-18T03:27:52.029Z,58.40
2018-02-18T03:30:19.646Z,58.10
2018-02-18T03:32:47.223Z,57.80
2018-02-18T03:35:14.856Z,57.90
2018-02-18T03:37:42.448Z,57.80
2018-02-18T03:40:10.052Z,57.90
2018-02-18T03:42:37.996Z,58.10
2018-02-18T03:45:05.616Z,58.50
2018-02-18T03:47:33.189Z,58.60
2018-02-18T03:50:00.790Z,58.50
2018-02-18T03:52:29.135Z,58.60
2018-02-18T03:54:56.710Z,58.50
2018-02-18T03:57:24.301Z,58.80
2018-02-18T03:59:51.872Z,58.70
2018-02-18T04:02:19.468Z,59.10
2018-02-18T04:04:47.062Z,59.20
2018-02-18T04:07:14.667Z,59.10
2018-02-18T04:09:42.276Z,59.10
2018-02-18T04:12:10.624Z,59.60
2018-02-18T04:14:38.318Z,59.60
2018-02-18T04:17:05.922Z,59.50
2018-02-18T04:19:34.251Z,59.20
2018-02-18T04:22:01.850Z,59.20
2018-02-18T04:24:30.442Z,59.10
2018-02-18T04:26:58.045Z,59.00
2018-02-18T04:29:25.616Z,59.00
2018-02-18T04:31:54.005Z,58.90
2018-02-18T04:34:22.379Z,58.90
2018-02-18T04:36:49.966Z,58.80
2018-02-18T04:39:18.342Z,58.60
2018-02-18T04:41:45.938Z,58.50
2018-02-18T04:44:14.291Z,58.50
2018-02-18T04:46:41.884Z,58.50
2018-02-18T04:49:09.488Z,58.80
2018-02-18T04:51:37.084Z,58.40
2018-02-18T04:54:04.649Z,58.10
2018-02-18T04:56:32.263Z,57.90
2018-02-18T04:58:59.834Z,57.80
2018-02-18T05:01:27.417Z,57.90
2018-02-18T05:03:54.998Z,58.00
2018-02-18T05:06:22.594Z,57.70
2018-02-18T05:08:50.244Z,58.20
2018-02-18T05:11:18.608Z,58.20
2018-02-18T05:13:46.183Z,58.20
2018-02-18T05:16:13.766Z,58.10
2018-02-18T05:18:41.347Z,58.00
2018-02-18T05:21:09.735Z,58.10
2018-02-18T05:23:37.297Z,58.10
2018-02-18T05:26:04.884Z,58.30
2018-02-18T05:28:33.326Z,58.20
2018-02-18T05:31:00.910Z,58.10
2018-02-18T05:33:28.466Z,57.90
2018-02-18T05:35:56.090Z,57.80
2018-02-18T05:38:23.651Z,57.80
2018-02-18T05:40:51.323Z,57.70
2018-02-18T05:43:18.926Z,57.70
2018-02-18T05:45:47.358Z,57.50
2018-02-18T05:48:15.031Z,57.40
2018-02-18T05:50:42.612Z,57.40
2018-02-18T05:53:10.269Z,57.30
2018-02-18T05:55:38.823Z,57.30
2018-02-18T05:58:07.307Z,57.60
2018-02-18T06:00:34.887Z,57.50
2018-02-18T06:03:03.255Z,57.70
2018-02-18T06:05:30.871Z,57.60
2018-02-18T06:07:59.248Z,57.60
2018-02-18T06:10:27.596Z,57.60
2018-02-18T06:12:55.195Z,57.50
2018-02-18T06:15:22.785Z,57.30
2018-02-18T06:17:51.146Z,57.10
2018-02-18T06:20:18.732Z,57.00
2018-02-18T06:22:46.340Z,56.90
2018-02-18T06:25:13.912Z,56.90
2018-02-18T06:27:41.623Z,57.00
2018-02-18T06:30:09.433Z,56.90
2018-02-18T06:32:37.976Z,57.30
2018-02-18T06:35:05.557Z,56.70
2018-02-18T06:37:33.164Z,56.90
2018-02-18T06:40:01.536Z,57.40
2018-02-18T06:42:29.214Z,57.20
2018-02-18T06:44:56.805Z,57.20
2018-02-18T06:47:25.176Z,57.20
2018-02-18T06:49:52.803Z,57.20
2018-02-18T06:52:20.465Z,58.00
2018-02-18T06:54:48.950Z,57.50
2018-02-18T06:57:17.278Z,57.80
2018-02-18T06:59:44.959Z,57.80
2018-02-18T07:02:13.343Z,57.90
2018-02-18T07:04:40.948Z,58.40
2018-02-18T07:07:08.543Z,57.80
2018-02-18T07:09:36.153Z,57.90
2018-02-18T07:12:03.759Z,58.00
2018-02-18T07:14:31.321Z,58.10
2018-02-18T07:16:58.931Z,58.20
2018-02-18T07:19:26.499Z,58.30
2018-02-18T07:21:54.166Z,58.40
2018-02-18T07:24:21.812Z,58.80
2018-02-18T07:26:49.497Z,58.30
2018-02-18T07:29:17.098Z,58.40
2018-02-18T07:31:45.489Z,58.50
2018-02-18T07:34:13.892Z,58.50
2018-02-18T07:36:41.484Z,58.40
2018-02-18T07:39:09.058Z,58.50
2018-02-18T07:41:36.658Z,58.70
2018-02-18T07:44:04.349Z,58.60
2018-02-18T07:46:31.948Z,58.50
2018-02-18T07:48:59.580Z,58.00
2018-02-18T07:51:27.156Z,57.70
2018-02-18T07:53:54.806Z,57.60
2018-02-18T07:56:22.420Z,57.60
2018-02-18T07:58:50.115Z,57.60
2018-02-18T08:01:18.508Z,58.20
2018-02-18T08:03:46.901Z,58.50
2018-02-18T08:06:15.313Z,59.00
2018-02-18T08:08:42.968Z,58.90
2018-02-18T08:11:11.382Z,59.30
2018-02-18T08:13:41.166Z,59.20
2018-02-18T08:16:10.552Z,59.20
2018-02-18T08:18:38.918Z,59.50
2018-02-18T08:21:06.511Z,59.40
2018-02-18T08:23:34.830Z,59.60
2018-02-18T08:26:02.433Z,59.90
2018-02-18T08:28:30.027Z,59.90
2018-02-18T08:30:57.635Z,59.90
2018-02-18T08:33:25.963Z,60.10
2018-02-18T08:35:54.436Z,60.20
2018-02-18T08:38:22.063Z,60.10
2018-02-18T08:40:49.776Z,60.20
2018-02-18T08:43:17.378Z,60.00
2018-02-18T08:45:45.619Z,60.10
2018-02-18T08:48:13.309Z,60.10
2018-02-18T08:50:40.960Z,60.10
2018-02-18T08:53:09.682Z,60.20
2018-02-18T08:55:37.406Z,60.20
2018-02-18T08:58:06.256Z,60.30
2018-02-18T09:00:33.859Z,60.30
2018-02-18T09:03:03.069Z,60.40
2018-02-18T09:05:31.471Z,60.40
2018-02-18T09:07:59.209Z,60.20
2018-02-18T09:10:26.883Z,60.10
2018-02-18T09:12:54.464Z,60.00
2018-02-18T09:15:22.122Z,60.00
2018-02-18T09:17:49.707Z,60.00
2018-02-18T09:20:17.318Z,60.10
2018-02-18T09:22:45.879Z,59.90
2018-02-18T09:25:13.515Z,60.00
2018-02-18T09:27:41.374Z,60.20
2018-02-18T09:30:09.031Z,60.00
2018-02-18T09:32:38.121Z,60.10
2018-02-18T09:35:06.767Z,59.90
2018-02-18T09:37:34.463Z,60.00
2018-02-18T09:40:02.700Z,60.10
2018-02-18T09:45:44.031Z,59.90
2018-02-18T09:48:11.916Z,59.70
2018-02-18T09:50:39.608Z,59.70
2018-02-18T09:54:05.306Z,59.60
2018-02-18T09:56:32.905Z,59.60
2018-02-18T09:59:01.744Z,59.20
2018-02-18T10:01:29.625Z,59.30
2018-02-18T10:03:58.259Z,59.30
2018-02-18T10:06:25.946Z,59.10
2018-02-18T10:08:53.564Z,58.90
2018-02-18T10:11:21.230Z,58.70
2018-02-18T10:13:49.102Z,58.60
2018-02-18T10:16:16.725Z,58.40
2018-02-18T10:18:44.361Z,58.20
2018-02-18T10:21:12.701Z,58.20
2018-02-18T10:23:40.539Z,58.00
2018-02-18T10:26:08.167Z,58.30
2018-02-18T10:28:35.736Z,57.70
2018-02-18T10:31:04.210Z,57.20
2018-02-18T10:33:31.787Z,57.20
2018-02-18T10:35:59.422Z,57.00
2018-02-18T10:38:27.025Z,57.10
2018-02-18T10:40:54.691Z,56.80
2018-02-18T10:43:22.294Z,56.90
2018-02-18T10:45:50.731Z,56.30
2018-02-18T10:48:18.334Z,56.20
2018-02-18T10:50:45.954Z,55.80
2018-02-18T10:53:14.331Z,55.40
2018-02-18T10:55:42.717Z,55.20
2018-02-18T10:58:11.173Z,54.30
2018-02-18T11:00:39.587Z,54.70
2018-02-18T11:03:07.171Z,55.00
2018-02-18T11:05:34.795Z,54.70
2018-02-18T11:08:02.428Z,54.40
2018-02-18T11:10:30.842Z,54.10
2018-02-18T11:12:58.605Z,54.00
2018-02-18T11:15:26.983Z,53.90
2018-02-18T11:17:55.385Z,53.60
2018-02-18T11:20:23.736Z,53.60
2018-02-18T11:22:51.340Z,53.50
2018-02-18T11:25:18.990Z,53.40
2018-02-18T11:27:46.660Z,53.10
2018-02-18T11:30:14.288Z,52.80
2018-02-18T11:32:41.913Z,52.70
2018-02-18T11:35:09.530Z,52.80
2018-02-18T11:37:37.163Z,52.60
2018-02-18T11:40:04.823Z,52.10
2018-02-18T11:42:32.394Z,52.00
2018-02-18T11:45:00.072Z,51.90
2018-02-18T11:47:27.686Z,51.70
2018-02-18T11:49:56.044Z,51.30
2018-02-18T11:52:23.618Z,51.20
2018-02-18T11:54:51.263Z,51.40
2018-02-18T11:57:18.831Z,51.30
2018-02-18T11:59:47.059Z,50.60
2018-02-18T12:02:14.675Z,50.70
2018-02-18T12:04:42.280Z,50.30
2018-02-18T12:07:09.903Z,50.10
2018-02-18T12:09:38.859Z,49.60
2018-02-18T12:12:06.486Z,49.50
2018-02-18T12:14:34.144Z,49.50
2018-02-18T12:17:02.572Z,49.40
2018-02-18T12:19:30.210Z,49.30
2018-02-18T12:21:59.011Z,48.00
2018-02-18T12:24:27.606Z,48.60
2018-02-18T12:26:55.973Z,48.30
2018-02-18T12:29:23.628Z,47.80
2018-02-18T12:31:51.258Z,48.10
2018-02-18T12:34:18.892Z,47.80
2018-02-18T12:36:46.586Z,48.20
2018-02-18T12:39:15.091Z,47.70
2018-02-18T12:41:42.709Z,47.60
2018-02-18T12:44:10.407Z,46.80
2018-02-18T12:46:39.189Z,47.30
2018-02-18T12:49:06.847Z,47.20
2018-02-18T12:51:34.535Z,46.90
2018-02-18T12:54:02.185Z,46.90
2018-02-18T12:56:30.786Z,46.80
2018-02-18T12:58:58.456Z,46.60
2018-02-18T13:03:59.739Z,45.50
2018-02-18T13:06:28.358Z,46.10
2018-02-18T13:08:56.008Z,46.30
2018-02-18T13:11:23.631Z,46.20
2018-02-18T13:13:52.976Z,45.70
2018-02-18T13:16:22.098Z,46.00
2018-02-18T13:18:49.711Z,45.90
2018-02-18T13:21:17.327Z,45.70
2018-02-18T13:23:45.008Z,45.60
2018-02-18T13:26:13.368Z,45.70
2018-02-18T13:28:41.014Z,45.20
2018-02-18T13:31:08.627Z,44.60
2018-02-18T13:33:36.331Z,45.20
2018-02-18T13:36:03.947Z,45.40
2018-02-18T13:38:36.938Z,45.30
2018-02-18T13:41:04.820Z,45.10
2018-02-18T13:43:33.491Z,44.20
2018-02-18T13:46:02.760Z,44.80
2018-02-18T13:48:30.372Z,44.70
2018-02-18T13:50:58.763Z,45.00
2018-02-18T13:53:27.143Z,44.80
2018-02-18T13:56:09.567Z,44.30
2018-02-18T13:58:38.742Z,44.30
2018-02-18T14:01:06.340Z,44.20
2018-02-18T14:03:33.933Z,44.40
2018-02-18T14:06:02.300Z,44.10
2018-02-18T14:08:30.021Z,44.00
2018-02-18T14:10:57.647Z,44.10
2018-02-18T14:13:25.251Z,43.70
2018-02-18T14:15:53.680Z,43.70
2018-02-18T14:18:21.247Z,43.60
2018-02-18T14:20:49.015Z,43.80
2018-02-18T14:23:16.628Z,43.70
2018-02-18T14:25:44.192Z,43.70
2018-02-18T14:28:11.822Z,43.40
2018-02-18T14:30:39.475Z,42.30
2018-02-18T14:33:07.823Z,43.40
2018-02-18T14:35:36.142Z,43.20
2018-02-18T14:38:03.810Z,43.20
2018-02-18T14:40:33.019Z,43.20
2018-02-18T14:43:13.393Z,43.30
2018-02-18T14:45:52.889Z,43.20
2018-02-18T14:48:32.426Z,43.00
2018-02-18T14:51:12.093Z,42.70
2018-02-18T14:53:51.418Z,42.70
2018-02-18T14:56:31.682Z,42.90
2018-02-18T14:59:00.110Z,42.80
2018-02-18T15:01:27.717Z,42.70
2018-02-18T15:03:56.080Z,42.30
2018-02-18T15:06:23.698Z,41.90
2018-02-18T15:08:51.287Z,42.70
2018-02-18T15:11:19.694Z,42.90
2018-02-18T15:13:47.314Z,42.70
2018-02-18T15:16:15.899Z,42.80
2018-02-18T15:18:43.861Z,43.10
2018-02-18T15:21:11.453Z,43.00
2018-02-18T15:23:39.076Z,43.20
2018-02-18T15:26:06.678Z,43.30
2018-02-18T15:28:34.264Z,43.20
2018-02-18T15:31:02.005Z,43.30
2018-02-18T15:33:30.688Z,43.30
2018-02-18T15:35:58.329Z,43.20
2018-02-18T15:38:26.852Z,43.60
2018-02-18T15:40:54.476Z,43.10
2018-02-18T15:43:22.990Z,43.20
2018-02-18T15:45:51.359Z,43.50
2018-02-18T15:48:19.020Z,43.60
2018-02-18T15:50:46.702Z,43.70
2018-02-18T15:53:17.688Z,43.80
2018-02-18T15:55:45.359Z,43.90
2018-02-18T15:58:13.008Z,43.80
2018-02-18T16:00:40.662Z,43.90
2018-02-18T16:03:08.296Z,43.80
2018-02-18T16:05:36.695Z,44.70
2018-02-18T16:08:04.409Z,44.00
2018-02-18T16:10:32.121Z,44.20
2018-02-18T16:12:59.742Z,44.20
2018-02-18T16:15:28.921Z,44.40
2018-02-18T16:17:56.562Z,44.30
2018-02-18T16:20:24.139Z,44.50
2018-02-18T16:22:51.873Z,44.70
2018-02-18T16:25:19.551Z,44.60
2018-02-18T16:27:47.722Z,44.70
2018-02-18T16:30:16.068Z,45.00
2018-02-18T16:32:44.789Z,44.90
2018-02-18T16:35:12.427Z,45.00
2018-02-18T16:37:40.196Z,45.10
2018-02-18T16:40:08.656Z,45.10
2018-02-18T16:42:36.279Z,45.10
2018-02-18T16:45:05.453Z,45.20
2018-02-18T16:47:33.820Z,45.40
2018-02-18T16:50:01.409Z,45.30
2018-02-18T16:52:29.831Z,45.50
2018-02-18T16:54:57.456Z,45.40
2018-02-18T16:57:25.109Z,45.70
2018-02-18T16:59:52.767Z,45.70
2018-02-18T17:02:20.471Z,45.70
2018-02-18T17:04:48.087Z,45.70
2018-02-18T17:07:15.718Z,45.80
2018-02-18T17:09:43.327Z,45.80
2018-02-18T17:12:10.935Z,45.80
2018-02-18T17:14:38.582Z,46.40
2018-02-18T17:17:06.217Z,45.80
2018-02-18T17:19:33.823Z,45.90
2018-02-18T17:22:01.488Z,46.00
2018-02-18T17:24:30.565Z,46.00
2018-02-18T17:27:04.046Z,46.10
2018-02-18T17:29:32.968Z,46.30
2018-02-18T17:32:01.085Z,46.20
2018-02-18T17:34:29.082Z,46.70
2018-02-18T17:36:59.071Z,46.40
2018-02-18T17:39:27.156Z,46.50
2018-02-18T17:41:55.963Z,46.60
2018-02-18T17:44:23.936Z,46.60
2018-02-18T17:46:51.991Z,46.60
2018-02-18T17:49:20.936Z,46.70
2018-02-18T17:51:49.047Z,46.70
2018-02-18T17:54:18.680Z,46.80
2018-02-18T17:56:46.744Z,46.90
2018-02-18T17:59:14.900Z,46.90
2018-02-18T18:01:42.958Z,47.00
2018-02-18T18:04:12.037Z,47.10
2018-02-18T18:06:40.137Z,47.10
2018-02-18T18:09:07.759Z,47.10
2018-02-18T18:11:35.341Z,47.20
2018-02-18T18:14:02.959Z,47.20
2018-02-18T18:16:30.856Z,47.10
2018-02-18T18:18:58.970Z,47.20
2018-02-18T18:21:27.099Z,47.30
2018-02-18T18:23:55.212Z,47.30
2018-02-18T18:26:23.784Z,47.20
2018-02-18T18:28:52.419Z,47.30
2018-02-18T18:31:20.057Z,47.30
2018-02-18T18:33:49.051Z,47.30
2018-02-18T18:36:17.235Z,47.20
2018-02-18T18:38:45.257Z,47.30
2018-02-18T18:41:14.608Z,47.40
2018-02-18T18:43:43.960Z,47.60
2018-02-18T18:46:11.960Z,47.40
2018-02-18T18:48:40.829Z,47.50
2018-02-18T18:51:08.989Z,47.50
2018-02-18T18:53:36.583Z,47.50
2018-02-18T18:56:04.975Z,47.60
2018-02-18T18:58:32.712Z,47.50
2018-02-18T19:01:00.418Z,47.50
2018-02-18T19:03:29.962Z,47.60
2018-02-18T19:05:58.297Z,47.80
2018-02-18T19:08:25.891Z,47.70
2018-02-18T19:10:53.458Z,47.70
2018-02-18T19:13:21.218Z,47.80
2018-02-18T19:15:48.878Z,47.80
2018-02-18T19:18:16.512Z,47.90
2018-02-18T19:20:44.115Z,48.00
2018-02-18T19:23:12.134Z,48.00
2018-02-18T19:25:40.199Z,48.00
2018-02-18T19:28:09.598Z,48.00
2018-02-18T19:30:39.890Z,48.10
2018-02-18T19:33:09.247Z,48.10
2018-02-18T19:35:37.725Z,48.20
2018-02-18T19:38:05.331Z,48.20
2018-02-18T19:40:33.421Z,48.30
2018-02-18T19:43:02.192Z,48.00
2018-02-18T19:45:29.859Z,48.10
2018-02-18T19:47:57.544Z,48.20
2018-02-18T19:50:25.222Z,48.30
2018-02-18T19:52:52.814Z,48.40
2018-02-18T19:55:20.417Z,48.50
2018-02-18T19:57:48.041Z,48.50
2018-02-18T20:00:15.630Z,48.90
2018-02-18T20:02:43.216Z,48.50
2018-02-18T20:05:11.561Z,48.70
2018-02-18T20:07:39.287Z,48.60
2018-02-18T20:10:06.878Z,48.80
2018-02-18T20:12:34.474Z,48.90
2018-02-18T20:15:02.823Z,49.00
2018-02-18T20:17:30.648Z,49.00
2018-02-18T20:19:58.309Z,49.10
2018-02-18T20:22:25.965Z,49.20
2018-02-18T20:24:53.776Z,49.40
2018-02-18T20:27:21.420Z,49.30
2018-02-18T20:29:49.966Z,49.60
2018-02-18T20:32:17.874Z,49.40
2018-02-18T20:34:46.220Z,49.50
2018-02-18T20:37:14.220Z,49.10
2018-02-18T20:39:41.864Z,49.60
2018-02-18T20:42:09.797Z,49.60
2018-02-18T20:44:37.450Z,49.70
2018-02-18T20:47:05.033Z,50.00
2018-02-18T20:49:32.625Z,49.60
2018-02-18T20:52:00.260Z,49.70
2018-02-18T20:54:27.844Z,49.70
2018-02-18T20:56:55.495Z,49.80
2018-02-18T20:59:23.819Z,49.90
2018-02-18T21:01:51.426Z,49.80
2018-02-18T21:04:19.809Z,50.00
2018-02-18T21:06:48.281Z,50.00
2018-02-18T21:09:15.881Z,49.90
2018-02-18T21:11:44.224Z,50.20
2018-02-18T21:14:11.792Z,50.20
2018-02-18T21:16:39.389Z,50.30
2018-02-18T21:19:06.994Z,50.40
2018-02-18T21:21:35.340Z,50.50
2018-02-18T21:24:02.914Z,50.50
2018-02-18T21:26:30.519Z,50.60
2018-02-18T21:28:58.079Z,50.50
2018-02-18T21:31:25.655Z,50.60
2018-02-18T21:33:53.238Z,50.70
2018-02-18T21:36:21.603Z,50.90
2018-02-18T21:38:49.193Z,50.80
2018-02-18T21:41:16.814Z,50.90
2018-02-18T21:43:44.382Z,51.10
2018-02-18T21:46:11.973Z,51.10
2018-02-18T21:48:40.361Z,51.10
2018-02-18T21:51:09.118Z,51.30
2018-02-18T21:53:37.586Z,51.40
2018-02-18T21:56:05.200Z,51.30
2018-02-18T21:58:32.796Z,51.40
2018-02-18T22:01:00.368Z,51.50
2018-02-18T22:03:27.976Z,51.50
2018-02-18T22:05:55.564Z,51.50
2018-02-18T22:08:23.157Z,51.50
2018-02-18T22:10:50.777Z,51.60
2018-02-18T22:13:18.376Z,51.60
2018-02-18T22:15:46.017Z,51.70
2018-02-18T22:18:13.602Z,51.80
2018-02-18T22:20:41.240Z,51.70
2018-02-18T22:23:08.836Z,51.80
2018-02-18T22:25:36.457Z,51.90
2018-02-18T22:28:04.824Z,52.00
2018-02-18T22:30:32.427Z,52.00
2018-02-18T22:33:00.777Z,52.00
2018-02-18T22:35:29.129Z,52.00
2018-02-18T22:37:57.597Z,52.20
2018-02-18T22:40:25.959Z,52.10
2018-02-18T22:42:53.586Z,52.00
2018-02-18T22:45:21.180Z,52.10
2018-02-18T22:47:48.780Z,52.10
2018-02-18T22:50:16.411Z,52.10
2018-02-18T22:52:44.000Z,52.20
2018-02-18T22:55:11.598Z,52.20
2018-02-18T22:57:39.446Z,52.20
2018-02-18T23:00:07.033Z,52.30
2018-02-18T23:02:35.424Z,52.40
2018-02-18T23:05:08.535Z,52.70
2018-02-18T23:07:36.133Z,52.50
2018-02-18T23:10:04.497Z,52.90
2018-02-18T23:12:32.085Z,52.80
2018-02-18T23:15:00.448Z,53.00
2018-02-18T23:17:28.780Z,53.20
2018-02-18T23:19:56.406Z,53.10
2018-02-18T23:22:23.994Z,53.20
2018-02-18T23:24:51.576Z,53.20
2018-02-18T23:27:19.197Z,53.30
2018-02-18T23:29:46.787Z,53.70
2018-02-18T23:32:14.407Z,53.50
2018-02-18T23:34:42.747Z,53.70
2018-02-18T23:37:10.331Z,53.30
2018-02-18T23:39:37.980Z,53.40
2018-02-18T23:42:05.565Z,53.40
2018-02-18T23:44:33.150Z,53.30
2018-02-18T23:47:00.711Z,53.10
2018-02-18T23:49:28.284Z,53.10
2018-02-18T23:51:55.932Z,53.10
2018-02-18T23:54:23.521Z,53.10
2018-02-18T23:56:51.108Z,53.20
2018-02-18T23:59:18.698Z,53.30
